Time;durP1;ratioP1;P1;durP2;ratioP2;P2;SDS_P1;SDS_P2;PMS_P1;PMS_P2;Temp;Humidity;BMP_temperature;BMP_pressure;BME280_temperature;BME280_humidity;BME280_pressure;Samples;Min_cycle;Max_cycle;Signal;HPM_P1;HPM_P2
2022/02/21 00:02:17;;;;;;;2.65;0.45;;;;;;;;;;4993372;28;20381;-73
2022/02/21 00:04:43;;;;;;;3.38;0.82;;;;;;;;;;4993012;28;20105;-73
2022/02/21 00:07:09;;;;;;;1.05;0.60;;;;;;;;;;4991837;28;20452;-73
2022/02/21 00:09:35;;;;;;;0.77;0.50;;;;;;;;;;4993097;28;20022;-73
2022/02/21 00:12:01;;;;;;;4.60;0.57;;;;;;;;;;4991896;28;20025;-73
2022/02/21 00:14:27;;;;;;;0.90;0.50;;;;;;;;;;4992264;28;20515;-73
2022/02/21 00:16:53;;;;;;;1.10;0.45;;;;;;;;;;4991656;28;20454;-73
2022/02/21 00:19:19;;;;;;;0.88;0.77;;;;;;;;;;4993033;28;20034;-73
2022/02/21 00:21:45;;;;;;;0.98;0.47;;;;;;;;;;4993128;28;20463;-74
2022/02/21 00:24:11;;;;;;;1.50;0.63;;;;;;;;;;4992365;28;20053;-72
2022/02/21 00:26:37;;;;;;;1.38;0.82;;;;;;;;;;4993065;28;20158;-73
2022/02/21 00:29:03;;;;;;;3.50;0.73;;;;;;;;;;4992897;28;20110;-72
2022/02/21 00:31:29;;;;;;;4.40;1.05;;;;;;;;;;4991778;28;20018;-72
2022/02/21 00:33:55;;;;;;;3.13;1.15;;;;;;;;;;4992455;28;20073;-73
2022/02/21 00:36:21;;;;;;;5.63;0.75;;;;;;;;;;4992966;28;20461;-73
2022/02/21 00:38:47;;;;;;;3.03;0.73;;;;;;;;;;4993242;28;20030;-73
2022/02/21 00:41:13;;;;;;;4.03;0.90;;;;;;;;;;4993331;28;20033;-73
2022/02/21 00:43:39;;;;;;;10.15;0.90;;;;;;;;;;4991001;28;20026;-74
2022/02/21 00:46:05;;;;;;;3.33;0.73;;;;;;;;;;4992994;28;20037;-73
2022/02/21 00:48:31;;;;;;;5.25;0.93;;;;;;;;;;4992873;28;20389;-73
2022/02/21 00:50:57;;;;;;;2.97;0.93;;;;;;;;;;4991558;28;20038;-73
2022/02/21 00:53:23;;;;;;;2.97;0.93;;;;;;;;;;4990792;28;20022;-73
2022/02/21 00:55:50;;;;;;;1.95;0.57;;;;;;;;;;4992713;28;20396;-73
2022/02/21 00:58:16;;;;;;;2.92;0.73;;;;;;;;;;4992579;28;20041;-72
2022/02/21 01:00:42;;;;;;;3.60;1.00;;;;;;;;;;4992592;28;20110;-73
2022/02/21 01:03:08;;;;;;;3.70;0.68;;;;;;;;;;4992016;28;20050;-72
2022/02/21 01:05:34;;;;;;;3.72;0.80;;;;;;;;;;4992689;28;20051;-73
2022/02/21 01:08:00;;;;;;;4.82;0.68;;;;;;;;;;4992697;28;20101;-73
2022/02/21 01:10:26;;;;;;;4.00;0.90;;;;;;;;;;4992564;28;20030;-73
2022/02/21 01:12:53;;;;;;;2.53;0.73;;;;;;;;;;4999067;28;20022;-72
2022/02/21 01:15:19;;;;;;;5.78;0.73;;;;;;;;;;5012286;28;20033;-73
2022/02/21 01:17:45;;;;;;;3.40;0.52;;;;;;;;;;5010750;28;20030;-73
2022/02/21 01:20:13;;;;;;;2.42;0.40;;;;;;;;;;5011086;28;20026;-73
2022/02/21 01:22:39;;;;;;;4.18;0.70;;;;;;;;;;5010563;28;20029;-71
2022/02/21 01:25:06;;;;;;;2.85;1.15;;;;;;;;;;5011856;28;20077;-73
2022/02/21 01:27:32;;;;;;;0.65;0.40;;;;;;;;;;5011846;28;20040;-73
2022/02/21 01:29:58;;;;;;;3.97;0.75;;;;;;;;;;5012126;28;20030;-73
2022/02/21 01:32:24;;;;;;;1.15;0.40;;;;;;;;;;5012294;28;20042;-74
2022/02/21 01:34:51;;;;;;;0.95;0.30;;;;;;;;;;5010280;28;20060;-73
2022/02/21 01:37:17;;;;;;;0.75;0.40;;;;;;;;;;5010815;28;20026;-74
2022/02/21 01:39:43;;;;;;;0.80;0.32;;;;;;;;;;5012627;28;20101;-73
2022/02/21 01:42:10;;;;;;;1.05;0.40;;;;;;;;;;5011991;28;20488;-75
2022/02/21 01:44:36;;;;;;;1.13;0.35;;;;;;;;;;5011685;28;20030;-74
2022/02/21 01:47:03;;;;;;;1.70;0.65;;;;;;;;;;5012089;28;20018;-74
2022/02/21 01:49:29;;;;;;;1.30;0.50;;;;;;;;;;5015714;28;20034;-74
2022/02/21 01:51:55;;;;;;;0.28;0.10;;;;;;;;;;5016039;28;20018;-73
2022/02/21 01:54:21;;;;;;;1.65;0.30;;;;;;;;;;5015221;28;20018;-74
2022/02/21 01:56:47;;;;;;;2.20;0.43;;;;;;;;;;5015356;28;20041;-73
2022/02/21 01:59:13;;;;;;;0.43;0.28;;;;;;;;;;5015590;28;20037;-74
2022/02/21 02:01:39;;;;;;;1.58;0.28;;;;;;;;;;5015616;28;20480;-74
2022/02/21 02:04:06;;;;;;;0.75;0.22;;;;;;;;;;5014843;28;20058;-74
2022/02/21 02:06:33;;;;;;;1.33;0.40;;;;;;;;;;5015401;28;20099;-73
2022/02/21 02:08:59;;;;;;;0.93;0.30;;;;;;;;;;5015147;28;20037;-73
2022/02/21 02:11:29;;;;;;;1.08;0.47;;;;;;;;;;5015151;28;20152;-73
2022/02/21 02:13:55;;;;;;;1.65;0.50;;;;;;;;;;5014635;28;20030;-73
2022/02/21 02:16:21;;;;;;;0.75;0.30;;;;;;;;;;5015119;28;20014;-72
2022/02/21 02:18:47;;;;;;;1.38;0.30;;;;;;;;;;5015410;28;20124;-73
2022/02/21 02:21:19;;;;;;;0.88;0.30;;;;;;;;;;5013891;28;20068;-73
2022/02/21 02:23:46;;;;;;;0.95;0.32;;;;;;;;;;5014271;28;20033;-72
2022/02/21 02:26:12;;;;;;;1.08;0.47;;;;;;;;;;5015256;28;20057;-72
2022/02/21 02:28:38;;;;;;;1.98;0.45;;;;;;;;;;5014805;28;20065;-74
2022/02/21 02:31:04;;;;;;;0.22;0.20;;;;;;;;;;5015119;28;20026;-73
2022/02/21 02:33:33;;;;;;;2.65;0.35;;;;;;;;;;5014404;28;20026;-73
2022/02/21 02:36:00;;;;;;;0.40;0.35;;;;;;;;;;5013528;28;20022;-74
2022/02/21 02:38:26;;;;;;;1.05;0.30;;;;;;;;;;5015087;28;20030;-73
2022/02/21 02:40:52;;;;;;;0.63;0.28;;;;;;;;;;5013628;28;20519;-74
2022/02/21 02:43:18;;;;;;;1.77;0.30;;;;;;;;;;5012903;28;20057;-73
2022/02/21 02:45:44;;;;;;;0.73;0.20;;;;;;;;;;5014827;28;20463;-73
2022/02/21 02:48:11;;;;;;;1.38;0.20;;;;;;;;;;5014508;28;20080;-74
2022/02/21 02:50:38;;;;;;;0.90;0.30;;;;;;;;;;5014780;28;20038;-74
2022/02/21 02:53:04;;;;;;;0.82;0.30;;;;;;;;;;5013731;28;20483;-72
2022/02/21 02:55:29;;;;;;;0.30;0.20;;;;;;;;;;5014259;28;20100;-73
2022/02/21 02:57:55;;;;;;;0.28;0.20;;;;;;;;;;5028814;23;20141;-71
2022/02/21 03:00:22;;;;;;;1.15;0.25;;;;;;;;;;5014113;28;20030;-71
2022/02/21 03:02:48;;;;;;;0.55;0.10;;;;;;;;;;5013830;28;20022;-70
2022/02/21 03:05:14;;;;;;;0.28;0.20;;;;;;;;;;5014186;28;20018;-71
2022/02/21 03:07:40;;;;;;;0.65;0.28;;;;;;;;;;5014176;28;20621;-72
2022/02/21 03:10:06;;;;;;;0.68;0.20;;;;;;;;;;5014241;28;20030;-72
2022/02/21 03:12:32;;;;;;;1.30;0.20;;;;;;;;;;5013244;28;20022;-71
2022/02/21 03:14:58;;;;;;;0.82;0.30;;;;;;;;;;5013539;28;20372;-72
2022/02/21 03:17:24;;;;;;;2.75;0.63;;;;;;;;;;5014236;28;20018;-71
2022/02/21 03:19:50;;;;;;;0.85;0.75;;;;;;;;;;5014346;28;20407;-71
2022/02/21 03:22:16;;;;;;;0.40;0.15;;;;;;;;;;5014038;28;20282;-72
2022/02/21 03:24:42;;;;;;;1.17;0.25;;;;;;;;;;5013177;28;20096;-72
2022/02/21 03:27:08;;;;;;;0.30;0.10;;;;;;;;;;5013918;28;20033;-72
2022/02/21 03:29:34;;;;;;;1.10;0.43;;;;;;;;;;5013906;28;20122;-72
2022/02/21 03:32:00;;;;;;;2.15;0.20;;;;;;;;;;5013869;28;20591;-72
2022/02/21 03:34:26;;;;;;;1.15;0.20;;;;;;;;;;5013388;28;20399;-72
2022/02/21 03:36:52;;;;;;;0.15;0.10;;;;;;;;;;5013836;28;20463;-72
2022/02/21 03:39:18;;;;;;;1.27;0.10;;;;;;;;;;5013785;28;20130;-71
2022/02/21 03:41:44;;;;;;;0.10;0.10;;;;;;;;;;5012467;28;20036;-72
2022/02/21 03:44:10;;;;;;;0.68;0.15;;;;;;;;;;5012930;28;20044;-71
2022/02/21 03:46:39;;;;;;;0.45;0.20;;;;;;;;;;5013657;28;20105;-71
2022/02/21 03:49:05;;;;;;;0.68;0.08;;;;;;;;;;5012425;28;20526;-71
2022/02/21 03:51:32;;;;;;;1.02;0.22;;;;;;;;;;5013717;28;20037;-71
2022/02/21 03:53:58;;;;;;;1.45;0.28;;;;;;;;;;5012731;28;20468;-71
2022/02/21 03:56:24;;;;;;;1.42;0.50;;;;;;;;;;5013191;28;20034;-71
2022/02/21 03:58:50;;;;;;;2.47;0.32;;;;;;;;;;5013550;28;20052;-71
2022/02/21 04:01:16;;;;;;;1.48;0.50;;;;;;;;;;5013439;28;20113;-71
2022/02/21 04:03:42;;;;;;;0.90;0.22;;;;;;;;;;5012480;28;20611;-71
2022/02/21 04:06:08;;;;;;;3.33;0.43;;;;;;;;;;5013191;28;20026;-70
2022/02/21 04:08:34;;;;;;;4.13;0.65;;;;;;;;;;5013151;28;20425;-70
2022/02/21 04:11:00;;;;;;;3.33;0.77;;;;;;;;;;5012404;28;20049;-71
2022/02/21 04:13:25;;;;;;;4.80;0.40;;;;;;;;;;5012474;28;20030;-70
2022/02/21 04:15:51;;;;;;;1.85;0.47;;;;;;;;;;5011632;28;20026;-71
2022/02/21 04:18:17;;;;;;;1.77;0.30;;;;;;;;;;5012956;28;20032;-71
2022/02/21 04:20:43;;;;;;;3.55;0.50;;;;;;;;;;5013015;28;20109;-71
2022/02/21 04:23:09;;;;;;;0.20;0.20;;;;;;;;;;5012275;28;20393;-72
2022/02/21 04:25:35;;;;;;;2.35;0.30;;;;;;;;;;5012852;28;20029;-71
2022/02/21 04:28:01;;;;;;;0.88;0.25;;;;;;;;;;5012927;28;20061;-72
2022/02/21 04:30:28;;;;;;;0.77;0.20;;;;;;;;;;5012855;28;20024;-71
2022/02/21 04:32:55;;;;;;;1.15;0.30;;;;;;;;;;5011073;28;20053;-71
2022/02/21 04:35:22;;;;;;;1.67;0.30;;;;;;;;;;5012681;28;20117;-71
2022/02/21 04:37:49;;;;;;;1.30;0.30;;;;;;;;;;5012859;28;20034;-71
2022/02/21 04:40:16;;;;;;;2.45;0.32;;;;;;;;;;5012504;28;20443;-71
2022/02/21 04:42:43;;;;;;;1.02;0.30;;;;;;;;;;5012074;28;20108;-72
2022/02/21 04:45:09;;;;;;;2.08;0.47;;;;;;;;;;5012590;28;20490;-70
2022/02/21 04:47:35;;;;;;;0.80;0.30;;;;;;;;;;5012886;28;20053;-71
2022/02/21 04:50:01;;;;;;;3.58;0.38;;;;;;;;;;5012995;28;20022;-71
2022/02/21 04:52:30;;;;;;;0.88;0.20;;;;;;;;;;5013023;28;20380;-71
2022/02/21 04:54:56;;;;;;;0.65;0.38;;;;;;;;;;5011779;28;20149;-71
2022/02/21 04:57:22;;;;;;;1.60;0.20;;;;;;;;;;5012460;28;20041;-71
2022/02/21 04:59:48;;;;;;;3.60;0.35;;;;;;;;;;5012342;28;20026;-71
2022/02/21 05:02:14;;;;;;;1.08;0.20;;;;;;;;;;5011061;28;20041;-71
2022/02/21 05:04:40;;;;;;;0.98;0.32;;;;;;;;;;5011441;28;20033;-69
2022/02/21 05:07:06;;;;;;;1.45;0.22;;;;;;;;;;5012290;28;20029;-71
2022/02/21 05:09:32;;;;;;;0.68;0.22;;;;;;;;;;5012059;28;20026;-71
2022/02/21 05:11:58;;;;;;;2.38;0.40;;;;;;;;;;5012502;28;20049;-71
2022/02/21 05:14:26;;;;;;;1.02;0.30;;;;;;;;;;4993539;28;20033;-71
2022/02/21 05:16:53;;;;;;;0.88;0.40;;;;;;;;;;4992487;28;20393;-71
2022/02/21 05:19:19;;;;;;;1.17;0.20;;;;;;;;;;4992379;28;20507;-71
2022/02/21 05:21:45;;;;;;;0.93;0.10;;;;;;;;;;4992502;28;20027;-70
2022/02/21 05:24:11;;;;;;;4.28;0.35;;;;;;;;;;4994724;28;20034;-71
2022/02/21 05:26:37;;;;;;;1.10;0.30;;;;;;;;;;5011443;28;20061;-71
2022/02/21 05:29:03;;;;;;;3.63;0.20;;;;;;;;;;4996693;28;20026;-72
2022/02/21 05:31:29;;;;;;;1.63;0.40;;;;;;;;;;4996739;28;20061;-72
2022/02/21 05:33:55;;;;;;;1.90;0.38;;;;;;;;;;4996021;28;20094;-72
2022/02/21 05:36:21;;;;;;;0.70;0.50;;;;;;;;;;4996427;28;20057;-72
2022/02/21 05:38:47;;;;;;;0.38;0.30;;;;;;;;;;4996139;28;20026;-71
2022/02/21 05:41:13;;;;;;;1.15;0.50;;;;;;;;;;4996367;28;20026;-71
2022/02/21 05:43:39;;;;;;;2.00;0.40;;;;;;;;;;4995461;28;20076;-72
2022/02/21 05:46:05;;;;;;;1.10;0.50;;;;;;;;;;4996199;28;20033;-71
2022/02/21 05:48:31;;;;;;;1.48;0.65;;;;;;;;;;4996088;28;20385;-71
2022/02/21 05:50:57;;;;;;;1.08;0.40;;;;;;;;;;4996052;28;20049;-71
2022/02/21 05:53:23;;;;;;;3.25;1.20;;;;;;;;;;4995354;28;20403;-72
2022/02/21 05:55:49;;;;;;;1.60;0.60;;;;;;;;;;4996071;28;20176;-71
2022/02/21 05:58:15;;;;;;;1.92;0.90;;;;;;;;;;4996056;28;20110;-71
2022/02/21 06:00:42;;;;;;;2.33;0.70;;;;;;;;;;4996016;28;20026;-71
2022/02/21 06:03:08;;;;;;;0.68;0.40;;;;;;;;;;5010469;28;20393;-71
2022/02/21 06:05:34;;;;;;;4.82;0.95;;;;;;;;;;4995752;28;20033;-71
2022/02/21 06:08:00;;;;;;;2.20;0.63;;;;;;;;;;4995663;28;20387;-71
2022/02/21 06:10:26;;;;;;;0.73;0.40;;;;;;;;;;4995879;28;20378;-71
2022/02/21 06:12:52;;;;;;;2.30;0.50;;;;;;;;;;4995314;28;20019;-71
2022/02/21 06:15:18;;;;;;;1.98;1.00;;;;;;;;;;4995789;28;20558;-70
2022/02/21 06:17:46;;;;;;;0.80;0.35;;;;;;;;;;4995574;28;20394;-73
2022/02/21 06:20:12;;;;;;;1.08;0.40;;;;;;;;;;4995453;28;20037;-72
2022/02/21 06:22:38;;;;;;;1.05;0.85;;;;;;;;;;4995220;28;20038;-71
2022/02/21 06:25:05;;;;;;;1.38;0.55;;;;;;;;;;4994969;28;20085;-71
2022/02/21 06:27:30;;;;;;;1.58;0.47;;;;;;;;;;4995497;28;20034;-72
2022/02/21 06:29:56;;;;;;;0.95;0.40;;;;;;;;;;4995852;28;20027;-71
2022/02/21 06:32:22;;;;;;;0.68;0.30;;;;;;;;;;4995130;28;20117;-71
2022/02/21 06:34:51;;;;;;;3.78;0.88;;;;;;;;;;4994115;28;20026;-71
2022/02/21 06:37:17;;;;;;;0.50;0.20;;;;;;;;;;4995155;28;20018;-71
2022/02/21 06:39:43;;;;;;;0.68;0.45;;;;;;;;;;4995206;28;20034;-71
2022/02/21 06:42:09;;;;;;;1.42;0.50;;;;;;;;;;4995042;28;20053;-71
2022/02/21 06:44:35;;;;;;;0.60;0.30;;;;;;;;;;4994628;28;20083;-71
2022/02/21 06:47:01;;;;;;;1.08;0.40;;;;;;;;;;4995257;28;20041;-71
2022/02/21 06:49:27;;;;;;;0.88;0.47;;;;;;;;;;4995054;28;20031;-71
2022/02/21 06:51:54;;;;;;;1.35;0.30;;;;;;;;;;5021530;28;20026;-71
2022/02/21 06:54:20;;;;;;;3.50;0.30;;;;;;;;;;5011844;28;20036;-71
2022/02/21 06:56:46;;;;;;;1.02;0.30;;;;;;;;;;5012735;28;20103;-70
2022/02/21 06:59:12;;;;;;;0.45;0.30;;;;;;;;;;5012661;28;20029;-71
2022/02/21 07:01:38;;;;;;;2.08;0.50;;;;;;;;;;5012912;28;20352;-71
2022/02/21 07:04:04;;;;;;;1.80;0.40;;;;;;;;;;5011911;28;20030;-71
2022/02/21 07:06:31;;;;;;;1.10;0.50;;;;;;;;;;5013296;28;20026;-71
2022/02/21 07:08:57;;;;;;;1.38;0.45;;;;;;;;;;5014019;28;20056;-70
2022/02/21 07:11:22;;;;;;;1.55;0.60;;;;;;;;;;5014126;28;20540;-70
2022/02/21 07:13:48;;;;;;;2.70;0.60;;;;;;;;;;5012373;28;20034;-70
2022/02/21 07:16:14;;;;;;;1.90;0.40;;;;;;;;;;5013554;28;20025;-72
2022/02/21 07:18:40;;;;;;;1.52;0.60;;;;;;;;;;5014280;28;20129;-70
2022/02/21 07:21:06;;;;;;;1.73;0.38;;;;;;;;;;5013935;28;20030;-71
2022/02/21 07:23:35;;;;;;;1.90;0.60;;;;;;;;;;5013314;28;20025;-71
2022/02/21 07:26:01;;;;;;;2.38;0.63;;;;;;;;;;5013823;28;20033;-71
2022/02/21 07:28:27;;;;;;;5.28;0.65;;;;;;;;;;5013619;28;20067;-71
2022/02/21 07:30:53;;;;;;;7.30;0.88;;;;;;;;;;5013856;28;20545;-71
2022/02/21 07:33:19;;;;;;;2.17;0.65;;;;;;;;;;5013020;28;20512;-71
2022/02/21 07:35:45;;;;;;;2.05;0.45;;;;;;;;;;5013661;28;20022;-70
2022/02/21 07:38:11;;;;;;;1.23;0.40;;;;;;;;;;5013504;28;20030;-70
2022/02/21 07:40:37;;;;;;;0.70;0.43;;;;;;;;;;5013650;28;20030;-71
2022/02/21 07:43:03;;;;;;;1.15;0.63;;;;;;;;;;5011491;28;20029;-71
2022/02/21 07:45:29;;;;;;;2.22;0.50;;;;;;;;;;5012525;28;20025;-71
2022/02/21 07:47:56;;;;;;;2.42;1.20;;;;;;;;;;5013140;28;20061;-71
2022/02/21 07:50:22;;;;;;;1.77;0.57;;;;;;;;;;5013294;28;20017;-71
2022/02/21 07:52:48;;;;;;;4.55;0.63;;;;;;;;;;5012643;28;20472;-71
2022/02/21 07:55:15;;;;;;;3.05;0.55;;;;;;;;;;5013050;28;20029;-71
2022/02/21 07:57:41;;;;;;;2.53;0.60;;;;;;;;;;5012695;28;20090;-71
2022/02/21 08:00:09;;;;;;;2.97;0.60;;;;;;;;;;5012889;28;20045;-71
2022/02/21 08:02:35;;;;;;;0.65;0.30;;;;;;;;;;5013355;28;20029;-71
2022/02/21 08:05:01;;;;;;;3.03;0.52;;;;;;;;;;5011242;28;20036;-71
2022/02/21 08:07:27;;;;;;;2.35;0.38;;;;;;;;;;5012891;28;20120;-71
2022/02/21 08:09:53;;;;;;;3.10;0.77;;;;;;;;;;5013105;28;20101;-71
2022/02/21 08:12:19;;;;;;;3.13;0.70;;;;;;;;;;5012918;28;20026;-70
2022/02/21 08:14:45;;;;;;;2.47;0.82;;;;;;;;;;5011994;28;20034;-70
2022/02/21 08:17:11;;;;;;;5.05;1.40;;;;;;;;;;5012633;28;20030;-72
2022/02/21 08:19:37;;;;;;;3.28;0.85;;;;;;;;;;5012873;28;20514;-70
2022/02/21 08:22:03;;;;;;;3.72;0.85;;;;;;;;;;5012887;28;20097;-71
2022/02/21 08:24:29;;;;;;;5.07;0.90;;;;;;;;;;5012206;28;20110;-71
2022/02/21 08:26:55;;;;;;;1.45;0.88;;;;;;;;;;5012531;28;20112;-71
2022/02/21 08:29:21;;;;;;;4.72;0.98;;;;;;;;;;5012408;28;20026;-71
2022/02/21 08:31:48;;;;;;;6.32;1.20;;;;;;;;;;5012528;28;20029;-72
2022/02/21 08:34:15;;;;;;;5.43;1.17;;;;;;;;;;5010460;28;20026;-71
2022/02/21 08:36:41;;;;;;;4.20;0.75;;;;;;;;;;5012680;28;20549;-72
2022/02/21 08:39:07;;;;;;;3.50;1.00;;;;;;;;;;5012468;28;20514;-72
2022/02/21 08:41:33;;;;;;;3.95;0.80;;;;;;;;;;5012545;28;20029;-72
2022/02/21 08:43:59;;;;;;;2.63;1.27;;;;;;;;;;5011793;28;20030;-71
2022/02/21 08:46:25;;;;;;;4.45;0.77;;;;;;;;;;5012939;28;20021;-71
2022/02/21 08:48:53;;;;;;;1.33;0.43;;;;;;;;;;5013073;28;20502;-72
2022/02/21 08:51:19;;;;;;;2.42;0.50;;;;;;;;;;5012705;28;20041;-71
2022/02/21 08:53:45;;;;;;;5.25;0.70;;;;;;;;;;5011804;28;20022;-70
2022/02/21 08:58:44;;;;;;;3.38;0.80;;;;;;;;;;4989761;28;20137;-71
2022/02/21 09:01:10;;;;;;;7.43;1.30;;;;;;;;;;4992704;28;20057;-69
2022/02/21 09:03:35;;;;;;;2.88;0.63;;;;;;;;;;4991940;28;20015;-71
2022/02/21 09:06:02;;;;;;;1.50;0.52;;;;;;;;;;4992756;28;20038;-71
2022/02/21 09:08:31;;;;;;;5.50;0.63;;;;;;;;;;4992358;28;20076;-70
2022/02/21 09:10:57;;;;;;;7.45;1.13;;;;;;;;;;4992806;28;20027;-71
2022/02/21 09:13:23;;;;;;;2.42;0.65;;;;;;;;;;4991399;28;20072;-71
2022/02/21 09:15:49;;;;;;;2.80;0.80;;;;;;;;;;4992694;28;20443;-72
2022/02/21 09:18:15;;;;;;;2.60;0.68;;;;;;;;;;4992163;28;20026;-73
2022/02/21 09:20:41;;;;;;;3.42;0.75;;;;;;;;;;4992142;28;20034;-72
2022/02/21 09:23:07;;;;;;;2.30;0.75;;;;;;;;;;4991579;28;20141;-72
2022/02/21 09:25:33;;;;;;;2.67;0.88;;;;;;;;;;4992242;28;20034;-74
2022/02/21 09:27:59;;;;;;;1.80;0.75;;;;;;;;;;4992477;28;20042;-73
2022/02/21 09:30:25;;;;;;;3.55;0.70;;;;;;;;;;4992640;28;20386;-72
2022/02/21 09:32:51;;;;;;;2.72;1.00;;;;;;;;;;4988353;28;20266;-73
2022/02/21 09:35:20;;;;;;;4.32;1.20;;;;;;;;;;4972500;28;20400;-72
2022/02/21 09:37:46;;;;;;;5.53;1.55;;;;;;;;;;4987386;28;20031;-73
2022/02/21 09:40:13;;;;;;;5.07;0.90;;;;;;;;;;4972355;28;20027;-72
2022/02/21 09:42:40;;;;;;;3.20;0.70;;;;;;;;;;4972296;28;20026;-69
2022/02/21 09:45:06;;;;;;;6.35;1.20;;;;;;;;;;4972461;28;20122;-72
2022/02/21 09:47:33;;;;;;;3.70;1.27;;;;;;;;;;4972563;28;20382;-72
2022/02/21 09:49:59;;;;;;;3.42;1.15;;;;;;;;;;4987490;28;20031;-70
2022/02/21 09:52:26;;;;;;;11.43;1.80;;;;;;;;;;4973206;28;20027;-72
2022/02/21 09:54:52;;;;;;;4.65;0.93;;;;;;;;;;4972447;28;20034;-72
2022/02/21 09:57:18;;;;;;;8.15;1.33;;;;;;;;;;4972630;28;20031;-71
2022/02/21 09:59:44;;;;;;;4.15;0.63;;;;;;;;;;4972729;28;20033;-72
2022/02/21 10:02:21;;;;;;;4.82;1.27;;;;;;;;;;4972703;28;20038;-73
2022/02/21 10:04:47;;;;;;;3.40;0.80;;;;;;;;;;4972163;28;20035;-73
2022/02/21 10:07:27;;;;;;;3.17;0.73;;;;;;;;;;4972553;28;20026;-71
2022/02/21 10:09:58;;;;;;;2.80;0.98;;;;;;;;;;4974900;28;20026;-72
2022/02/21 10:12:28;;;;;;;4.15;0.88;;;;;;;;;;4976259;28;20019;-72
2022/02/21 10:14:54;;;;;;;4.20;0.60;;;;;;;;;;4975897;28;20030;-70
2022/02/21 10:17:23;;;;;;;3.03;0.90;;;;;;;;;;4975996;28;20273;-72
2022/02/21 10:19:50;;;;;;;7.20;1.33;;;;;;;;;;4975773;28;20073;-72
2022/02/21 10:22:22;;;;;;;2.85;0.38;;;;;;;;;;4976186;28;20499;-71
2022/02/21 10:24:49;;;;;;;6.13;1.40;;;;;;;;;;4975702;28;20059;-73
2022/02/21 10:27:24;;;;;;;4.03;0.77;;;;;;;;;;4991014;28;20030;-72
2022/02/21 10:30:00;;;;;;;2.83;0.50;;;;;;;;;;4975788;28;20553;-74
2022/02/21 10:32:28;;;;;;;4.30;0.90;;;;;;;;;;4975807;28;20085;-73
2022/02/21 10:34:54;;;;;;;2.10;0.93;;;;;;;;;;4990348;28;20429;-72
2022/02/21 10:37:24;;;;;;;3.72;0.60;;;;;;;;;;4990870;28;20073;-73
2022/02/21 10:40:04;;;;;;;2.33;0.50;;;;;;;;;;4975884;28;20459;-72
2022/02/21 10:42:32;;;;;;;3.35;0.55;;;;;;;;;;4990632;28;20037;-74
2022/02/21 10:45:08;;;;;;;2.65;0.73;;;;;;;;;;4975104;28;20027;-72
2022/02/21 10:47:35;;;;;;;3.97;1.10;;;;;;;;;;4975423;28;20097;-71
2022/02/21 10:50:01;;;;;;;1.05;0.38;;;;;;;;;;4975743;28;20023;-72
2022/02/21 10:52:29;;;;;;;0.73;0.47;;;;;;;;;;4975477;28;20054;-72
2022/02/21 10:54:55;;;;;;;1.00;0.60;;;;;;;;;;4989897;28;20110;-73
2022/02/21 10:57:27;;;;;;;2.95;0.90;;;;;;;;;;4990381;28;20035;-72
2022/02/21 10:59:53;;;;;;;5.38;1.10;;;;;;;;;;4975330;28;20050;-72
2022/02/21 11:02:22;;;;;;;3.17;0.80;;;;;;;;;;4975320;28;20038;-73
2022/02/21 11:04:48;;;;;;;2.80;0.90;;;;;;;;;;4974917;28;20053;-72
2022/02/21 11:07:15;;;;;;;3.75;0.80;;;;;;;;;;4974992;28;20025;-72
2022/02/21 11:09:41;;;;;;;2.60;0.57;;;;;;;;;;4975157;28;20035;-72
2022/02/21 11:12:08;;;;;;;3.67;0.75;;;;;;;;;;4975027;28;20369;-72
2022/02/21 11:14:35;;;;;;;4.43;0.70;;;;;;;;;;4989962;28;20535;-70
2022/02/21 11:17:02;;;;;;;4.38;0.60;;;;;;;;;;4975325;28;20500;-72
2022/02/21 11:19:28;;;;;;;2.65;0.60;;;;;;;;;;4975113;28;20030;-72
2022/02/21 11:21:55;;;;;;;1.25;0.32;;;;;;;;;;4975273;28;20026;-73
2022/02/21 11:24:26;;;;;;;1.13;0.47;;;;;;;;;;4974230;28;20105;-72
2022/02/21 11:27:11;;;;;;;1.90;0.52;;;;;;;;;;4989643;28;20030;-71
2022/02/21 11:29:37;;;;;;;4.10;1.05;;;;;;;;;;4974810;28;20047;-74
2022/02/21 11:32:03;;;;;;;5.00;0.63;;;;;;;;;;4974868;28;20038;-71
2022/02/21 11:34:29;;;;;;;3.70;0.93;;;;;;;;;;4989071;28;20031;-71
2022/02/21 11:36:59;;;;;;;5.65;1.35;;;;;;;;;;4974542;28;20113;-72
2022/02/21 11:39:28;;;;;;;4.03;0.50;;;;;;;;;;4974623;28;20030;-73
2022/02/21 11:42:05;;;;;;;2.45;0.88;;;;;;;;;;4974590;28;20034;-72
2022/02/21 11:44:43;;;;;;;1.65;0.60;;;;;;;;;;4973871;28;20038;-71
2022/02/21 11:47:09;;;;;;;2.17;0.50;;;;;;;;;;4989393;28;20121;-72
2022/02/21 11:49:36;;;;;;;3.78;0.90;;;;;;;;;;4974203;28;20023;-72
2022/02/21 11:52:21;;;;;;;6.28;1.10;;;;;;;;;;4974487;28;20105;-72
2022/02/21 11:54:47;;;;;;;6.93;1.23;;;;;;;;;;4974296;28;20508;-71
2022/02/21 11:57:14;;;;;;;3.10;1.15;;;;;;;;;;4973992;28;20057;-73
2022/02/21 11:59:40;;;;;;;4.57;0.57;;;;;;;;;;4974202;28;20027;-73
2022/02/21 12:02:17;;;;;;;4.80;1.00;;;;;;;;;;4974205;28;20396;-71
2022/02/21 12:04:49;;;;;;;3.35;0.90;;;;;;;;;;4973712;28;20055;-69
2022/02/21 12:07:22;;;;;;;1.50;0.73;;;;;;;;;;4974025;28;20046;-70
2022/02/21 12:10:26;;;;;;;2.75;0.98;;;;;;;;;;4974122;28;20029;-72
2022/02/21 12:12:52;;;;;;;3.65;1.27;;;;;;;;;;4951886;29;20027;-71
2022/02/21 12:15:18;;;;;;;3.45;1.20;;;;;;;;;;4951770;28;20023;-72
2022/02/21 12:17:44;;;;;;;5.18;1.00;;;;;;;;;;4962661;28;20034;-71
2022/02/21 12:20:32;;;;;;;5.63;1.25;;;;;;;;;;4989440;28;20429;-72
2022/02/21 12:23:07;;;;;;;5.97;1.00;;;;;;;;;;4973337;28;20054;-72
2022/02/21 12:25:40;;;;;;;7.50;1.15;;;;;;;;;;4973961;28;20065;-72
2022/02/21 12:28:24;;;;;;;5.22;0.95;;;;;;;;;;4973791;28;20034;-70
2022/02/21 12:30:53;;;;;;;4.25;1.05;;;;;;;;;;4973715;28;20543;-70
2022/02/21 12:33:24;;;;;;;3.22;0.82;;;;;;;;;;4972795;28;20041;-70
2022/02/21 12:36:00;;;;;;;4.13;1.35;;;;;;;;;;4973792;28;20480;-70
2022/02/21 12:38:28;;;;;;;4.25;0.90;;;;;;;;;;4973333;28;20030;-69
2022/02/21 12:41:14;;;;;;;8.02;1.27;;;;;;;;;;4973442;28;20106;-71
2022/02/21 12:43:58;;;;;;;6.60;1.45;;;;;;;;;;4972647;28;20392;-70
2022/02/21 12:46:25;;;;;;;3.53;0.80;;;;;;;;;;4973022;28;20027;-69
2022/02/21 12:48:52;;;;;;;4.63;1.10;;;;;;;;;;4973281;28;20477;-73
2022/02/21 12:51:19;;;;;;;6.20;1.08;;;;;;;;;;4973180;28;20037;-72
2022/02/21 12:54:01;;;;;;;4.43;0.90;;;;;;;;;;4972986;28;20417;-70
2022/02/21 12:56:30;;;;;;;8.27;4.25;;;;;;;;;;4987880;28;20023;-69
2022/02/21 12:58:56;;;;;;;13.85;7.30;;;;;;;;;;4973532;28;20031;-72
2022/02/21 13:01:22;;;;;;;21.92;13.75;;;;;;;;;;4973294;28;20033;-73
2022/02/21 13:03:52;;;;;;;30.55;19.50;;;;;;;;;;4972638;28;20611;-75
2022/02/21 13:06:18;;;;;;;22.27;11.85;;;;;;;;;;4988239;28;20035;-75
2022/02/21 13:08:44;;;;;;;22.90;15.52;;;;;;;;;;4972807;28;20038;-69
2022/02/21 13:11:10;;;;;;;14.05;8.48;;;;;;;;;;4973100;28;20389;-69
2022/02/21 13:13:43;;;;;;;17.38;10.82;;;;;;;;;;4972229;28;20026;-72
2022/02/21 13:16:09;;;;;;;10.45;4.70;;;;;;;;;;4972965;28;20400;-67
2022/02/21 13:18:47;;;;;;;16.73;10.27;;;;;;;;;;4987671;28;20030;-70
2022/02/21 13:21:13;;;;;;;8.77;4.68;;;;;;;;;;4973027;28;20480;-70
2022/02/21 13:23:39;;;;;;;5.45;2.60;;;;;;;;;;4972079;28;20059;-70
2022/02/21 13:26:05;;;;;;;6.00;2.35;;;;;;;;;;4973233;28;20378;-67
2022/02/21 13:28:31;;;;;;;9.02;3.20;;;;;;;;;;4972772;28;20062;-70
2022/02/21 13:31:03;;;;;;;4.93;3.13;;;;;;;;;;4972890;28;20038;-69
2022/02/21 13:33:38;;;;;;;9.38;4.45;;;;;;;;;;4986832;28;20038;-70
2022/02/21 13:36:04;;;;;;;6.72;3.22;;;;;;;;;;4972924;28;20105;-68
2022/02/21 13:38:30;;;;;;;4.53;1.92;;;;;;;;;;4972769;28;20046;-69
2022/02/21 13:40:58;;;;;;;5.20;2.67;;;;;;;;;;4972837;28;20053;-70
2022/02/21 13:43:24;;;;;;;6.43;2.22;;;;;;;;;;4972068;28;20378;-68
2022/02/21 13:45:52;;;;;;;7.57;3.05;;;;;;;;;;4976707;28;20162;-70
2022/02/21 13:48:23;;;;;;;9.68;3.28;;;;;;;;;;4976266;28;20030;-70
2022/02/21 13:50:52;;;;;;;6.90;2.97;;;;;;;;;;4976630;28;20493;-70
2022/02/21 13:53:18;;;;;;;3.92;1.55;;;;;;;;;;4990836;28;20070;-68
2022/02/21 13:55:53;;;;;;;5.53;2.00;;;;;;;;;;4976442;28;20023;-71
2022/02/21 13:58:25;;;;;;;4.63;2.88;;;;;;;;;;4976099;28;20042;-70
2022/02/21 14:00:51;;;;;;;5.60;1.75;;;;;;;;;;4991455;28;20057;-69
2022/02/21 14:03:18;;;;;;;10.23;3.28;;;;;;;;;;4975881;28;20027;-70
2022/02/21 14:05:53;;;;;;;4.28;1.38;;;;;;;;;;4976369;28;20134;-70
2022/02/21 14:08:20;;;;;;;5.05;2.55;;;;;;;;;;4976037;28;20030;-69
2022/02/21 14:10:56;;;;;;;6.35;2.40;;;;;;;;;;4976248;28;20041;-69
2022/02/21 14:13:22;;;;;;;5.65;2.28;;;;;;;;;;4975259;28;20101;-68
2022/02/21 14:15:50;;;;;;;6.38;1.70;;;;;;;;;;4976293;28;20050;-69
2022/02/21 14:18:16;;;;;;;6.53;1.35;;;;;;;;;;4990655;28;20054;-71
2022/02/21 14:20:42;;;;;;;5.85;1.40;;;;;;;;;;4976138;28;20061;-72
2022/02/21 14:23:08;;;;;;;8.32;2.22;;;;;;;;;;4975078;28;20496;-73
2022/02/21 14:25:34;;;;;;;8.73;2.33;;;;;;;;;;4975992;28;20031;-69
2022/02/21 14:28:00;;;;;;;4.80;1.00;;;;;;;;;;4975843;28;20370;-72
2022/02/21 14:30:27;;;;;;;4.97;1.58;;;;;;;;;;4976079;28;20074;-69
2022/02/21 14:32:53;;;;;;;4.20;1.27;;;;;;;;;;4975261;28;20046;-69
2022/02/21 14:35:19;;;;;;;4.32;1.50;;;;;;;;;;4990639;28;20034;-69
2022/02/21 14:37:45;;;;;;;5.88;1.85;;;;;;;;;;4990470;28;20023;-70
2022/02/21 14:40:11;;;;;;;10.80;1.15;;;;;;;;;;4975462;28;20030;-70
2022/02/21 14:42:37;;;;;;;4.50;1.50;;;;;;;;;;4975305;28;20073;-70
2022/02/21 14:45:04;;;;;;;3.58;1.20;;;;;;;;;;4990262;28;20400;-69
2022/02/21 14:47:30;;;;;;;5.30;2.03;;;;;;;;;;4977574;28;20023;-68